createdAt,value
2022-10-23T00:02:43.525Z,100.00
2022-10-23T00:05:29.007Z,100.00
2022-10-23T00:08:13.980Z,100.00
2022-10-23T00:10:59.233Z,100.00
2022-10-23T00:13:44.628Z,100.00
2022-10-23T00:16:30.530Z,100.00
2022-10-23T00:19:15.667Z,100.00
2022-10-23T00:22:00.770Z,100.00
2022-10-23T00:24:45.826Z,100.00
2022-10-23T00:27:31.096Z,100.00
2022-10-23T00:30:16.371Z,100.00
2022-10-23T00:33:01.421Z,100.00
2022-10-23T00:35:46.326Z,100.00
2022-10-23T00:38:31.259Z,100.00
2022-10-23T00:41:23.799Z,100.00
2022-10-23T00:44:18.041Z,100.00
2022-10-23T00:47:02.918Z,100.00
2022-10-23T00:49:47.874Z,100.00
2022-10-23T00:52:37.387Z,100.00
2022-10-23T00:55:24.458Z,100.00
2022-10-23T00:58:18.579Z,100.00
2022-10-23T01:01:17.665Z,100.00
2022-10-23T01:04:05.529Z,100.00
2022-10-23T01:07:05.628Z,100.00
2022-10-23T01:10:05.861Z,100.00
2022-10-23T01:12:55.668Z,100.00
2022-10-23T01:15:44.201Z,100.00
2022-10-23T01:18:44.171Z,100.00
2022-10-23T01:21:40.525Z,100.00
2022-10-23T01:24:40.826Z,100.00
2022-10-23T01:27:31.855Z,100.00
2022-10-23T01:30:17.646Z,100.00
2022-10-23T01:33:02.463Z,100.00
2022-10-23T01:35:50.570Z,100.00
2022-10-23T01:38:41.841Z,100.00
2022-10-23T01:41:35.932Z,100.00
2022-10-23T01:44:20.797Z,100.00
2022-10-23T01:47:08.774Z,100.00
2022-10-23T01:49:56.746Z,100.00
2022-10-23T01:52:41.999Z,100.00
2022-10-23T01:55:27.251Z,100.00
2022-10-23T01:58:13.507Z,100.00
2022-10-23T02:01:04.017Z,100.00
2022-10-23T02:03:50.843Z,100.00
2022-10-23T02:06:36.393Z,100.00
2022-10-23T02:09:21.665Z,100.00
2022-10-23T02:12:10.026Z,100.00
2022-10-23T02:15:02.625Z,100.00
2022-10-23T02:18:13.366Z,100.00
2022-10-23T02:21:13.922Z,100.00
2022-10-23T02:24:17.279Z,100.00
2022-10-23T02:27:09.336Z,100.00
2022-10-23T02:30:04.482Z,100.00
2022-10-23T02:32:52.566Z,100.00
2022-10-23T02:35:37.869Z,100.00
2022-10-23T02:38:31.388Z,100.00
2022-10-23T02:41:23.371Z,100.00
2022-10-23T02:44:23.602Z,100.00
2022-10-23T02:47:21.430Z,100.00
2022-10-23T02:50:12.306Z,100.00
2022-10-23T02:53:25.242Z,100.00
2022-10-23T02:56:13.058Z,100.00
2022-10-23T02:59:16.271Z,100.00
2022-10-23T03:02:25.979Z,100.00
2022-10-23T03:05:16.835Z,100.00
2022-10-23T03:08:08.938Z,100.00
2022-10-23T03:10:54.166Z,100.00
2022-10-23T03:13:39.408Z,100.00
2022-10-23T03:16:24.900Z,100.00
2022-10-23T03:22:01.628Z,100.00
2022-10-23T03:24:46.546Z,100.00
2022-10-23T03:27:31.720Z,100.00
2022-10-23T03:30:17.355Z,100.00
2022-10-23T03:33:02.323Z,100.00
2022-10-23T03:38:38.192Z,100.00
2022-10-23T03:41:23.321Z,100.00
2022-10-23T03:44:08.279Z,100.00
2022-10-23T03:46:53.605Z,100.00
2022-10-23T03:49:39.672Z,100.00
2022-10-23T03:55:14.967Z,100.00
2022-10-23T03:58:00.030Z,100.00
2022-10-23T04:00:44.959Z,100.00
2022-10-23T04:03:29.887Z,100.00
2022-10-23T04:06:14.886Z,100.00
2022-10-23T04:09:00.398Z,100.00
2022-10-23T04:11:45.632Z,100.00
2022-10-23T04:14:30.947Z,100.00
2022-10-23T04:17:15.867Z,100.00
2022-10-23T04:20:01.020Z,100.00
2022-10-23T04:22:46.215Z,100.00
2022-10-23T04:25:31.441Z,100.00
2022-10-23T04:28:16.358Z,100.00
2022-10-23T04:31:01.440Z,100.00
2022-10-23T04:33:46.729Z,100.00
2022-10-23T04:36:32.203Z,100.00
2022-10-23T04:39:17.550Z,100.00
2022-10-23T04:42:02.778Z,100.00
2022-10-23T04:44:47.802Z,100.00
2022-10-23T04:47:32.842Z,100.00
2022-10-23T04:50:17.982Z,100.00
2022-10-23T04:53:02.846Z,100.00
2022-10-23T04:55:56.661Z,100.00
2022-10-23T04:58:42.315Z,100.00
2022-10-23T05:01:27.764Z,100.00
2022-10-23T05:04:13.923Z,100.00
2022-10-23T05:06:59.150Z,100.00
2022-10-23T05:09:44.458Z,100.00
2022-10-23T05:12:29.624Z,100.00
2022-10-23T05:15:14.750Z,100.00
2022-10-23T05:18:12.191Z,100.00
2022-10-23T05:21:09.477Z,100.00
2022-10-23T05:23:54.976Z,100.00
2022-10-23T05:26:40.269Z,100.00
2022-10-23T05:29:25.541Z,100.00
2022-10-23T05:32:14.414Z,100.00
2022-10-23T05:35:03.102Z,100.00
2022-10-23T05:37:51.148Z,100.00
2022-10-23T05:40:36.506Z,100.00
2022-10-23T05:43:21.593Z,100.00
2022-10-23T05:46:07.441Z,100.00
2022-10-23T05:48:52.780Z,100.00
2022-10-23T05:51:39.505Z,100.00
2022-10-23T05:54:24.783Z,100.00
2022-10-23T05:57:10.047Z,100.00
2022-10-23T05:59:55.089Z,100.00
2022-10-23T06:02:40.012Z,100.00
2022-10-23T06:05:25.282Z,100.00
2022-10-23T06:08:10.103Z,100.00
2022-10-23T06:10:55.029Z,100.00
2022-10-23T06:13:42.674Z,100.00
2022-10-23T06:16:27.702Z,100.00
2022-10-23T06:19:12.955Z,100.00
2022-10-23T06:21:58.072Z,100.00
2022-10-23T06:24:42.990Z,100.00
2022-10-23T06:27:27.780Z,100.00
2022-10-23T06:30:13.255Z,100.00
2022-10-23T06:32:59.000Z,100.00
2022-10-23T06:35:46.205Z,100.00
2022-10-23T06:38:37.210Z,100.00
2022-10-23T06:41:22.622Z,100.00
2022-10-23T06:44:10.109Z,100.00
2022-10-23T06:46:55.313Z,100.00
2022-10-23T06:49:40.274Z,100.00
2022-10-23T06:52:45.379Z,100.00
2022-10-23T06:55:30.863Z,100.00
2022-10-23T06:58:15.835Z,100.00
2022-10-23T07:01:02.152Z,100.00
2022-10-23T07:03:48.326Z,100.00
2022-10-23T07:06:33.584Z,100.00
2022-10-23T07:09:18.649Z,100.00
2022-10-23T07:12:03.786Z,100.00
2022-10-23T07:14:49.164Z,100.00
2022-10-23T07:17:34.198Z,100.00
2022-10-23T07:20:19.263Z,100.00
2022-10-23T07:23:04.559Z,100.00
2022-10-23T07:25:49.393Z,100.00
2022-10-23T07:28:34.668Z,100.00
2022-10-23T07:31:23.054Z,100.00
2022-10-23T07:34:11.254Z,100.00
2022-10-23T07:36:56.962Z,100.00
2022-10-23T07:39:41.858Z,100.00
2022-10-23T07:42:26.853Z,100.00
2022-10-23T07:45:12.635Z,100.00
2022-10-23T07:47:57.514Z,100.00
2022-10-23T07:50:42.439Z,100.00
2022-10-23T07:53:28.034Z,100.00
2022-10-23T07:56:13.177Z,100.00
2022-10-23T07:58:58.209Z,100.00
2022-10-23T08:01:43.747Z,100.00
2022-10-23T08:04:28.731Z,100.00
2022-10-23T08:07:13.700Z,100.00
2022-10-23T08:09:58.709Z,100.00
2022-10-23T08:12:43.975Z,100.00
2022-10-23T08:15:29.441Z,100.00
2022-10-23T08:18:15.499Z,100.00
2022-10-23T08:21:02.432Z,100.00
2022-10-23T08:23:47.957Z,100.00
2022-10-23T08:26:33.006Z,100.00
2022-10-23T08:29:18.141Z,100.00
2022-10-23T08:32:03.405Z,100.00
2022-10-23T08:34:48.629Z,100.00
2022-10-23T08:37:33.570Z,100.00
2022-10-23T08:40:23.434Z,100.00
2022-10-23T08:43:11.326Z,100.00
2022-10-23T08:46:09.516Z,100.00
2022-10-23T08:49:17.813Z,100.00
2022-10-23T08:52:14.121Z,100.00
2022-10-23T08:55:23.390Z,100.00
2022-10-23T08:58:32.895Z,100.00
2022-10-23T09:01:24.390Z,100.00
2022-10-23T09:04:15.234Z,100.00
2022-10-23T09:07:29.517Z,100.00
2022-10-23T09:10:48.058Z,100.00
2022-10-23T09:14:15.005Z,100.00
2022-10-23T09:17:16.439Z,100.00
2022-10-23T09:20:21.284Z,100.00
2022-10-23T09:23:19.329Z,100.00
2022-10-23T09:26:14.273Z,100.00
2022-10-23T09:29:15.135Z,100.00
2022-10-23T09:32:03.269Z,100.00
2022-10-23T09:34:54.311Z,100.00
2022-10-23T09:37:46.434Z,100.00
2022-10-23T09:40:38.853Z,100.00
2022-10-23T09:43:25.835Z,100.00
2022-10-23T09:46:11.993Z,100.00
2022-10-23T09:48:59.886Z,100.00
2022-10-23T09:52:03.483Z,100.00
2022-10-23T09:54:52.958Z,100.00
2022-10-23T09:57:43.224Z,100.00
2022-10-23T10:00:28.913Z,100.00
2022-10-23T10:03:22.653Z,100.00
2022-10-23T10:06:31.375Z,100.00
2022-10-23T10:09:17.051Z,100.00
2022-10-23T10:12:17.468Z,100.00
2022-10-23T10:15:19.907Z,100.00
2022-10-23T10:18:17.655Z,100.00
2022-10-23T10:21:26.871Z,100.00
2022-10-23T10:24:21.118Z,100.00
2022-10-23T10:27:11.959Z,100.00
2022-10-23T10:30:08.098Z,100.00
2022-10-23T10:32:59.160Z,100.00
2022-10-23T10:35:53.445Z,100.00
2022-10-23T10:38:46.311Z,100.00
2022-10-23T10:42:10.859Z,100.00
2022-10-23T10:45:21.349Z,100.00
2022-10-23T10:48:28.377Z,100.00
2022-10-23T10:51:29.310Z,100.00
2022-10-23T10:54:39.685Z,100.00
2022-10-23T10:57:32.306Z,100.00
2022-10-23T11:00:22.912Z,100.00
2022-10-23T11:03:20.258Z,100.00
2022-10-23T11:06:12.852Z,100.00
2022-10-23T11:09:20.169Z,100.00
2022-10-23T11:12:06.029Z,100.00
2022-10-23T11:14:51.381Z,100.00
2022-10-23T11:17:43.478Z,100.00
2022-10-23T11:20:44.084Z,100.00
2022-10-23T11:23:59.780Z,100.00
2022-10-23T11:27:01.993Z,100.00
2022-10-23T11:29:52.980Z,100.00
2022-10-23T11:32:44.022Z,100.00
2022-10-23T11:35:55.347Z,100.00
2022-10-23T11:38:41.987Z,100.00
2022-10-23T11:41:34.064Z,100.00
2022-10-23T11:44:27.705Z,100.00
2022-10-23T11:47:39.673Z,100.00
2022-10-23T11:50:29.902Z,100.00
2022-10-23T11:53:33.279Z,100.00
2022-10-23T11:56:19.516Z,100.00
2022-10-23T11:59:19.392Z,100.00
2022-10-23T12:02:38.233Z,100.00
2022-10-23T12:05:41.648Z,100.00
2022-10-23T12:08:29.969Z,100.00
2022-10-23T12:11:27.924Z,100.00
2022-10-23T12:14:32.092Z,100.00
2022-10-23T12:17:28.988Z,100.00
2022-10-23T12:20:13.874Z,100.00
2022-10-23T12:23:19.987Z,100.00
2022-10-23T12:26:17.038Z,100.00
2022-10-23T12:29:20.482Z,100.00
2022-10-23T12:32:23.673Z,100.00
2022-10-23T12:35:19.362Z,100.00
2022-10-23T12:38:15.206Z,100.00
2022-10-23T12:41:06.552Z,100.00
2022-10-23T12:43:55.898Z,100.00
2022-10-23T12:46:43.441Z,100.00
2022-10-23T12:49:35.394Z,100.00
2022-10-23T12:52:21.149Z,100.00
2022-10-23T12:55:15.133Z,100.00
2022-10-23T12:58:00.299Z,100.00
2022-10-23T13:00:57.390Z,100.00
2022-10-23T13:03:42.739Z,100.00
2022-10-23T13:06:28.817Z,100.00
2022-10-23T13:09:33.411Z,100.00
2022-10-23T13:12:24.720Z,100.00
2022-10-23T13:15:10.876Z,100.00
2022-10-23T13:17:55.714Z,100.00
2022-10-23T13:20:57.687Z,100.00
2022-10-23T13:23:43.467Z,100.00
2022-10-23T13:26:35.834Z,100.00
2022-10-23T13:29:26.622Z,100.00
2022-10-23T13:32:32.289Z,100.00
2022-10-23T13:35:22.783Z,100.00
2022-10-23T13:38:08.788Z,100.00
2022-10-23T13:40:59.970Z,100.00
2022-10-23T13:43:46.843Z,100.00
2022-10-23T13:46:32.052Z,100.00
2022-10-23T13:49:17.072Z,100.00
2022-10-23T13:52:02.329Z,100.00
2022-10-23T13:54:47.169Z,100.00
2022-10-23T13:57:32.540Z,100.00
2022-10-23T14:00:18.515Z,100.00
2022-10-23T14:03:04.610Z,100.00
2022-10-23T14:05:52.947Z,100.00
2022-10-23T14:08:38.097Z,100.00
2022-10-23T14:11:23.642Z,100.00
2022-10-23T14:14:09.041Z,100.00
2022-10-23T14:16:54.800Z,100.00
2022-10-23T14:19:39.997Z,99.02
2022-10-23T14:22:24.999Z,99.39
2022-10-23T14:25:10.208Z,99.01
2022-10-23T14:30:45.358Z,97.16
2022-10-23T14:33:30.301Z,94.37
2022-10-23T14:36:15.235Z,93.79
2022-10-23T14:39:00.497Z,92.71
2022-10-23T14:41:45.502Z,92.53
2022-10-23T14:44:30.538Z,94.58
2022-10-23T14:47:16.317Z,97.15
2022-10-23T14:50:01.186Z,99.43
2022-10-23T14:52:46.503Z,100.00
2022-10-23T14:55:31.750Z,100.00
2022-10-23T14:58:16.919Z,100.00
2022-10-23T15:01:02.248Z,100.00
2022-10-23T15:03:48.513Z,100.00
2022-10-23T15:06:35.235Z,100.00
2022-10-23T15:09:20.281Z,100.00
2022-10-23T15:12:06.208Z,100.00
2022-10-23T15:14:51.386Z,100.00
2022-10-23T15:17:38.210Z,100.00
2022-10-23T15:20:23.200Z,100.00
2022-10-23T15:23:08.191Z,100.00
2022-10-23T15:26:01.927Z,100.00
2022-10-23T15:28:55.498Z,100.00
2022-10-23T15:31:56.958Z,100.00
2022-10-23T15:34:42.805Z,100.00
2022-10-23T15:37:27.650Z,100.00
2022-10-23T15:40:12.763Z,100.00
2022-10-23T15:42:58.066Z,100.00
2022-10-23T15:45:43.134Z,100.00
2022-10-23T15:48:28.359Z,100.00
2022-10-23T15:51:13.324Z,100.00
2022-10-23T15:53:59.220Z,100.00
2022-10-23T15:56:45.714Z,100.00
2022-10-23T15:59:32.190Z,100.00
2022-10-23T16:02:17.369Z,100.00
2022-10-23T16:05:02.476Z,100.00
2022-10-23T16:07:47.646Z,100.00
2022-10-23T16:10:32.902Z,100.00
2022-10-23T16:13:18.149Z,100.00
2022-10-23T16:16:03.853Z,100.00
2022-10-23T16:18:48.818Z,100.00
2022-10-23T16:21:36.121Z,100.00
2022-10-23T16:24:21.512Z,100.00
2022-10-23T16:27:06.603Z,100.00
2022-10-23T16:29:51.697Z,100.00
2022-10-23T16:32:36.842Z,100.00
2022-10-23T16:35:22.480Z,100.00
2022-10-23T16:38:07.693Z,100.00
2022-10-23T16:40:53.675Z,100.00
2022-10-23T16:43:38.971Z,100.00
2022-10-23T16:46:24.213Z,100.00
2022-10-23T16:49:09.524Z,100.00
2022-10-23T16:51:54.722Z,100.00
2022-10-23T16:54:42.101Z,100.00
2022-10-23T16:57:27.941Z,100.00
2022-10-23T17:00:13.418Z,100.00
2022-10-23T17:02:58.553Z,100.00
2022-10-23T17:05:43.466Z,100.00
2022-10-23T17:08:28.762Z,100.00
2022-10-23T17:11:18.498Z,100.00
2022-10-23T17:14:11.210Z,100.00
2022-10-23T17:16:59.241Z,100.00
2022-10-23T17:19:46.067Z,100.00
2022-10-23T17:22:31.846Z,100.00
2022-10-23T17:25:16.983Z,100.00
2022-10-23T17:28:02.151Z,100.00
2022-10-23T17:30:47.165Z,100.00
2022-10-23T17:33:32.238Z,100.00
2022-10-23T17:36:18.827Z,100.00
2022-10-23T17:39:08.401Z,100.00
2022-10-23T17:41:54.397Z,100.00
2022-10-23T17:44:39.519Z,100.00
2022-10-23T17:47:24.280Z,100.00
2022-10-23T17:50:12.155Z,100.00
2022-10-23T17:52:57.392Z,100.00
2022-10-23T17:55:42.561Z,100.00
2022-10-23T17:58:27.801Z,100.00
2022-10-23T18:01:14.722Z,100.00
2022-10-23T18:04:02.219Z,100.00
2022-10-23T18:06:51.143Z,100.00
2022-10-23T18:09:36.293Z,100.00
2022-10-23T18:12:22.752Z,100.00
2022-10-23T18:15:08.336Z,100.00
2022-10-23T18:17:53.301Z,100.00
2022-10-23T18:20:40.361Z,100.00
2022-10-23T18:23:26.824Z,100.00
2022-10-23T18:26:18.352Z,100.00
2022-10-23T18:29:07.256Z,100.00
2022-10-23T18:31:52.119Z,100.00
2022-10-23T18:34:37.386Z,100.00
2022-10-23T18:37:22.572Z,100.00
2022-10-23T18:40:08.297Z,100.00
2022-10-23T18:42:53.348Z,100.00
2022-10-23T18:45:42.040Z,100.00
2022-10-23T18:48:27.645Z,100.00
2022-10-23T18:51:18.815Z,100.00
2022-10-23T18:54:08.917Z,100.00
2022-10-23T18:56:53.929Z,100.00
2022-10-23T18:59:38.987Z,100.00
2022-10-23T19:02:24.322Z,100.00
2022-10-23T19:05:09.495Z,100.00
2022-10-23T19:07:55.319Z,100.00
2022-10-23T19:10:43.762Z,100.00
2022-10-23T19:13:28.771Z,100.00
2022-10-23T19:16:21.432Z,100.00
2022-10-23T19:19:21.273Z,100.00
2022-10-23T19:22:08.658Z,100.00
2022-10-23T19:25:01.765Z,100.00
2022-10-23T19:27:47.937Z,100.00
2022-10-23T19:30:34.667Z,100.00
2022-10-23T19:33:19.576Z,100.00
2022-10-23T19:36:06.523Z,100.00
2022-10-23T19:38:53.656Z,100.00
2022-10-23T19:41:38.537Z,100.00
2022-10-23T19:44:23.694Z,100.00
2022-10-23T19:47:08.870Z,100.00
2022-10-23T19:49:53.822Z,100.00
2022-10-23T19:52:38.867Z,100.00
2022-10-23T19:55:23.959Z,100.00
2022-10-23T19:58:09.240Z,100.00
2022-10-23T20:00:54.436Z,100.00
2022-10-23T20:03:44.506Z,100.00
2022-10-23T20:06:32.255Z,100.00
2022-10-23T20:09:17.378Z,100.00
2022-10-23T20:12:03.556Z,100.00
2022-10-23T20:14:48.999Z,100.00
2022-10-23T20:17:34.369Z,100.00
2022-10-23T20:20:20.560Z,100.00
2022-10-23T20:23:05.788Z,100.00
2022-10-23T20:25:50.801Z,100.00
2022-10-23T20:28:36.540Z,100.00
2022-10-23T20:31:25.283Z,100.00
2022-10-23T20:34:11.326Z,100.00
2022-10-23T20:36:56.702Z,100.00
2022-10-23T20:39:42.865Z,100.00
2022-10-23T20:42:27.928Z,100.00
2022-10-23T20:45:12.878Z,100.00
2022-10-23T20:47:57.809Z,100.00
2022-10-23T20:50:42.780Z,100.00
2022-10-23T20:53:27.897Z,100.00
2022-10-23T20:56:14.215Z,100.00
2022-10-23T20:59:05.265Z,100.00
2022-10-23T21:01:53.045Z,100.00
2022-10-23T21:04:38.711Z,100.00
2022-10-23T21:07:23.932Z,100.00
2022-10-23T21:10:08.979Z,100.00
2022-10-23T21:12:54.138Z,100.00
2022-10-23T21:15:41.712Z,100.00
2022-10-23T21:18:44.961Z,100.00
2022-10-23T21:21:32.997Z,100.00
2022-10-23T21:24:18.177Z,100.00
2022-10-23T21:27:03.227Z,100.00
2022-10-23T21:29:48.140Z,100.00
2022-10-23T21:32:33.022Z,100.00
2022-10-23T21:35:18.097Z,100.00
2022-10-23T21:38:03.010Z,100.00
2022-10-23T21:40:48.229Z,100.00
2022-10-23T21:43:33.696Z,100.00
2022-10-23T21:46:19.074Z,100.00
2022-10-23T21:49:04.865Z,100.00
2022-10-23T21:51:49.861Z,100.00
2022-10-23T21:54:35.171Z,100.00
2022-10-23T21:57:20.603Z,100.00
2022-10-23T22:00:06.899Z,100.00
2022-10-23T22:02:52.007Z,100.00
2022-10-23T22:05:36.921Z,100.00
2022-10-23T22:08:21.815Z,100.00
2022-10-23T22:11:06.767Z,100.00
2022-10-23T22:13:51.821Z,100.00
2022-10-23T22:16:37.227Z,100.00
2022-10-23T22:19:22.859Z,100.00
2022-10-23T22:22:08.362Z,100.00
2022-10-23T22:24:53.372Z,100.00
2022-10-23T22:27:38.409Z,100.00
2022-10-23T22:30:23.538Z,100.00
2022-10-23T22:33:08.534Z,100.00
2022-10-23T22:35:59.574Z,100.00
2022-10-23T22:38:45.398Z,100.00
2022-10-23T22:41:30.821Z,100.00
2022-10-23T22:44:16.255Z,100.00
2022-10-23T22:47:01.118Z,100.00
2022-10-23T22:49:46.069Z,100.00
2022-10-23T22:52:31.051Z,100.00
2022-10-23T22:55:16.354Z,100.00
2022-10-23T22:58:01.578Z,100.00
2022-10-23T23:00:47.532Z,100.00
2022-10-23T23:03:34.577Z,100.00
2022-10-23T23:06:20.751Z,100.00
2022-10-23T23:09:05.652Z,100.00
2022-10-23T23:11:52.580Z,100.00
2022-10-23T23:14:38.437Z,100.00
2022-10-23T23:17:31.817Z,100.00
2022-10-23T23:20:17.230Z,100.00
2022-10-23T23:23:02.899Z,100.00
2022-10-23T23:25:49.714Z,100.00
2022-10-23T23:28:35.014Z,100.00
2022-10-23T23:31:26.177Z,100.00
2022-10-23T23:34:11.305Z,100.00
2022-10-23T23:36:56.720Z,100.00
2022-10-23T23:39:41.876Z,100.00
2022-10-23T23:42:26.870Z,100.00
2022-10-23T23:45:14.611Z,100.00
2022-10-23T23:48:00.372Z,100.00
2022-10-23T23:50:45.501Z,100.00
2022-10-23T23:53:30.591Z,100.00
2022-10-23T23:56:16.574Z,100.00
2022-10-23T23:59:01.690Z,100.00
